Umuarama, Brazil
Current Conditions -  °F | °C
As of 5:00 PM on Saturday 20 Dec 2014 (Local Time) from SBCA Reporting Station
Scattered Clouds Scattered Clouds  
Wind Chill: 86°   Ceiling: Unl
Heat Index: 86°   Visibility: 6mi
Dew Point: 54°   Wind: 28mph
Humidity: 33%   Direction: 30°NNE
Pressure: 29.74"   Gusts: NA
Location:  23.76°S, 53.32°W
Report Text: SBCA 201900Z 03024KT 9999 SCT010 30/12 Q1007
Loading
Personal Weather Stations






























Interactive Weather Map New forecast layout! Learn more

10-Day Weather Forecast

Advertisements
Track Severe Weather on mobile